Ana Sayfa
METAR-TAF:

METAR-TAF

Havaalanları :

Statesville Regional Airport

Statesville, Kuzey Carolina, Amerika Birleşik Devletleri

Enlem: 35-45-55N, Boylam: 080-57-24W, yükseklik: 294 m

Güncel hava durumu gözlemi

Rapor saat 21:35 UTC de 27 dakika önce yapıldı.
Rüzgar kuzey/kuzeydoğudan 5 kt
Sıcaklık 12°C
Nem 62%
Basınç 1014 hPa
Görüş mesafesi: 16.1 km
Açık gökyüzü

METAR: KSVH 172135Z AUTO 03005KT 10SM CLR 12/05 A2995 RMK AO2 T01210045

Saat: 17:02 (22:02 UTC)


TAF: eksik

4.000'den fazla havaalanı için hava durumu gözlemleri ve tahminleri (METAR ve TAF raporları).

Kullanılabilir istasyonlar harita üzerinde sarı ve kırmızı noktalarla gösterilir.

İstasyonun adını görmek için fareyi noktanın üzerinde gezdirin.

Sonrasında hava gözlem ve tahminlerini görmek için tıklayın.

Haritayı değiştirmek için: yaklaştırmak için siyah artı işaretli yeşil düğmeye ve uzaklaştırmak için de eksi işaretli düğmeye hızla tıklayın; bitişik haritalar için yeşil okları kullanın.


METAR-TAF: